sensor_id;sensor_type;location;lat;lon;timestamp;P1;durP1;ratioP1;P2;durP2;ratioP2
10120;SDS011;5100;45.176;5.714;2023-02-11T00:00:03;17.03;;;15.23;;
10120;SDS011;5100;45.176;5.714;2023-02-11T00:02:31;18.67;;;16.67;;
10120;SDS011;5100;45.176;5.714;2023-02-11T00:04:58;18.00;;;14.77;;
10120;SDS011;5100;45.176;5.714;2023-02-11T00:07:30;18.93;;;16.80;;
10120;SDS011;5100;45.176;5.714;2023-02-11T00:09:57;16.27;;;14.63;;
10120;SDS011;5100;45.176;5.714;2023-02-11T00:12:24;19.03;;;13.50;;
10120;SDS011;5100;45.176;5.714;2023-02-11T00:14:50;17.10;;;15.20;;
10120;SDS011;5100;45.176;5.714;2023-02-11T00:17:16;17.00;;;13.80;;
10120;SDS011;5100;45.176;5.714;2023-02-11T00:19:42;19.60;;;16.70;;
10120;SDS011;5100;45.176;5.714;2023-02-11T00:22:08;16.20;;;14.10;;
10120;SDS011;5100;45.176;5.714;2023-02-11T00:24:35;17.30;;;15.50;;
10120;SDS011;5100;45.176;5.714;2023-02-11T00:27:01;16.80;;;14.33;;
10120;SDS011;5100;45.176;5.714;2023-02-11T00:29:27;18.93;;;14.80;;
10120;SDS011;5100;45.176;5.714;2023-02-11T00:31:54;17.27;;;14.77;;
10120;SDS011;5100;45.176;5.714;2023-02-11T00:34:23;17.43;;;15.53;;
10120;SDS011;5100;45.176;5.714;2023-02-11T00:36:49;30.03;;;24.67;;
10120;SDS011;5100;45.176;5.714;2023-02-11T00:39:16;18.37;;;16.33;;
10120;SDS011;5100;45.176;5.714;2023-02-11T00:41:42;17.50;;;15.70;;
10120;SDS011;5100;45.176;5.714;2023-02-11T00:44:08;16.70;;;14.17;;
10120;SDS011;5100;45.176;5.714;2023-02-11T00:46:34;17.47;;;14.43;;
10120;SDS011;5100;45.176;5.714;2023-02-11T00:49:00;18.40;;;15.80;;
10120;SDS011;5100;45.176;5.714;2023-02-11T00:51:26;17.20;;;15.07;;
10120;SDS011;5100;45.176;5.714;2023-02-11T00:53:53;17.50;;;14.90;;
10120;SDS011;5100;45.176;5.714;2023-02-11T00:56:19;19.03;;;15.83;;
10120;SDS011;5100;45.176;5.714;2023-02-11T00:58:45;20.63;;;16.77;;
10120;SDS011;5100;45.176;5.714;2023-02-11T01:01:12;22.13;;;17.73;;
10120;SDS011;5100;45.176;5.714;2023-02-11T01:03:41;20.00;;;16.07;;
10120;SDS011;5100;45.176;5.714;2023-02-11T01:06:07;19.07;;;16.47;;
10120;SDS011;5100;45.176;5.714;2023-02-11T01:08:36;16.63;;;14.90;;
10120;SDS011;5100;45.176;5.714;2023-02-11T01:11:04;19.23;;;16.97;;
10120;SDS011;5100;45.176;5.714;2023-02-11T01:13:32;23.33;;;17.30;;
10120;SDS011;5100;45.176;5.714;2023-02-11T01:16:01;17.83;;;16.00;;
10120;SDS011;5100;45.176;5.714;2023-02-11T01:18:28;21.40;;;19.10;;
10120;SDS011;5100;45.176;5.714;2023-02-11T01:20:54;20.17;;;18.10;;
10120;SDS011;5100;45.176;5.714;2023-02-11T01:23:21;20.83;;;18.63;;
10120;SDS011;5100;45.176;5.714;2023-02-11T01:25:48;22.13;;;19.47;;
10120;SDS011;5100;45.176;5.714;2023-02-11T01:28:22;22.20;;;19.27;;
10120;SDS011;5100;45.176;5.714;2023-02-11T01:30:50;22.43;;;19.07;;
10120;SDS011;5100;45.176;5.714;2023-02-11T01:33:17;23.93;;;18.23;;
10120;SDS011;5100;45.176;5.714;2023-02-11T01:35:44;20.27;;;18.03;;
10120;SDS011;5100;45.176;5.714;2023-02-11T01:38:14;21.27;;;18.97;;
10120;SDS011;5100;45.176;5.714;2023-02-11T01:40:47;20.57;;;18.37;;
10120;SDS011;5100;45.176;5.714;2023-02-11T01:43:24;19.50;;;17.50;;
10120;SDS011;5100;45.176;5.714;2023-02-11T01:45:57;22.87;;;17.57;;
10120;SDS011;5100;45.176;5.714;2023-02-11T01:49:16;18.97;;;17.07;;
10120;SDS011;5100;45.176;5.714;2023-02-11T01:51:49;18.83;;;15.33;;
10120;SDS011;5100;45.176;5.714;2023-02-11T01:54:23;18.00;;;15.70;;
10120;SDS011;5100;45.176;5.714;2023-02-11T01:57:12;17.57;;;15.73;;
10120;SDS011;5100;45.176;5.714;2023-02-11T01:59:59;18.50;;;15.40;;
10120;SDS011;5100;45.176;5.714;2023-02-11T02:03:21;17.20;;;14.53;;
10120;SDS011;5100;45.176;5.714;2023-02-11T02:05:36;16.43;;;13.80;;
10120;SDS011;5100;45.176;5.714;2023-02-11T02:08:22;15.03;;;13.43;;
10120;SDS011;5100;45.176;5.714;2023-02-11T02:11:00;19.03;;;14.30;;
10120;SDS011;5100;45.176;5.714;2023-02-11T02:13:28;14.67;;;13.17;;
10120;SDS011;5100;45.176;5.714;2023-02-11T02:15:58;15.17;;;13.20;;
10120;SDS011;5100;45.176;5.714;2023-02-11T02:35:14;16.30;;;14.47;;
10120;SDS011;5100;45.176;5.714;2023-02-11T02:40:45;15.87;;;14.17;;
10120;SDS011;5100;45.176;5.714;2023-02-11T02:43:15;16.27;;;14.63;;
10120;SDS011;5100;45.176;5.714;2023-02-11T02:45:42;16.70;;;14.87;;
10120;SDS011;5100;45.176;5.714;2023-02-11T02:53:44;16.30;;;13.83;;
10120;SDS011;5100;45.176;5.714;2023-02-11T03:04:48;16.33;;;14.57;;
10120;SDS011;5100;45.176;5.714;2023-02-11T03:10:27;15.80;;;13.73;;
10120;SDS011;5100;45.176;5.714;2023-02-11T03:12:56;16.33;;;14.63;;
10120;SDS011;5100;45.176;5.714;2023-02-11T03:15:24;15.57;;;13.87;;
10120;SDS011;5100;45.176;5.714;2023-02-11T03:17:53;17.90;;;13.47;;
10120;SDS011;5100;45.176;5.714;2023-02-11T03:20:23;14.23;;;12.73;;
10120;SDS011;5100;45.176;5.714;2023-02-11T03:22:52;17.63;;;13.73;;
10120;SDS011;5100;45.176;5.714;2023-02-11T03:25:27;14.07;;;12.57;;
10120;SDS011;5100;45.176;5.714;2023-02-11T03:30:42;16.30;;;14.47;;
10120;SDS011;5100;45.176;5.714;2023-02-11T03:33:17;15.40;;;13.70;;
10120;SDS011;5100;45.176;5.714;2023-02-11T03:35:54;15.00;;;13.37;;
10120;SDS011;5100;45.176;5.714;2023-02-11T03:38:46;14.87;;;13.03;;
10120;SDS011;5100;45.176;5.714;2023-02-11T03:41:13;16.33;;;13.10;;
10120;SDS011;5100;45.176;5.714;2023-02-11T03:43:45;16.73;;;13.70;;
10120;SDS011;5100;45.176;5.714;2023-02-11T03:46:17;15.03;;;13.53;;
10120;SDS011;5100;45.176;5.714;2023-02-11T03:48:51;19.43;;;15.43;;
10120;SDS011;5100;45.176;5.714;2023-02-11T03:51:21;18.97;;;15.87;;
10120;SDS011;5100;45.176;5.714;2023-02-11T03:53:49;16.63;;;14.90;;
10120;SDS011;5100;45.176;5.714;2023-02-11T03:56:23;17.00;;;14.97;;
10120;SDS011;5100;45.176;5.714;2023-02-11T03:58:53;17.63;;;15.20;;
10120;SDS011;5100;45.176;5.714;2023-02-11T04:01:20;22.50;;;19.40;;
10120;SDS011;5100;45.176;5.714;2023-02-11T04:03:46;23.30;;;19.93;;
10120;SDS011;5100;45.176;5.714;2023-02-11T04:06:12;24.47;;;20.87;;
10120;SDS011;5100;45.176;5.714;2023-02-11T04:08:38;23.20;;;20.70;;
10120;SDS011;5100;45.176;5.714;2023-02-11T04:11:04;23.63;;;20.33;;
10120;SDS011;5100;45.176;5.714;2023-02-11T04:13:30;23.97;;;21.27;;
10120;SDS011;5100;45.176;5.714;2023-02-11T04:15:57;24.80;;;20.93;;
10120;SDS011;5100;45.176;5.714;2023-02-11T04:18:23;23.67;;;20.60;;
10120;SDS011;5100;45.176;5.714;2023-02-11T04:20:49;23.20;;;20.33;;
10120;SDS011;5100;45.176;5.714;2023-02-11T04:23:15;24.50;;;20.50;;
10120;SDS011;5100;45.176;5.714;2023-02-11T04:25:41;22.87;;;19.33;;
10120;SDS011;5100;45.176;5.714;2023-02-11T04:28:08;21.63;;;19.33;;
10120;SDS011;5100;45.176;5.714;2023-02-11T04:30:34;23.07;;;19.70;;
10120;SDS011;5100;45.176;5.714;2023-02-11T04:33:00;24.37;;;20.47;;
10120;SDS011;5100;45.176;5.714;2023-02-11T04:35:32;24.63;;;20.13;;
10120;SDS011;5100;45.176;5.714;2023-02-11T04:37:58;22.50;;;20.13;;
10120;SDS011;5100;45.176;5.714;2023-02-11T04:40:25;23.20;;;20.80;;
10120;SDS011;5100;45.176;5.714;2023-02-11T04:42:50;23.10;;;20.37;;
10120;SDS011;5100;45.176;5.714;2023-02-11T04:45:17;24.00;;;20.43;;
10120;SDS011;5100;45.176;5.714;2023-02-11T04:47:43;23.10;;;19.63;;
10120;SDS011;5100;45.176;5.714;2023-02-11T04:50:09;23.10;;;19.57;;
10120;SDS011;5100;45.176;5.714;2023-02-11T04:52:35;21.03;;;18.63;;
10120;SDS011;5100;45.176;5.714;2023-02-11T04:55:02;20.20;;;18.10;;
10120;SDS011;5100;45.176;5.714;2023-02-11T04:57:28;21.90;;;17.63;;
10120;SDS011;5100;45.176;5.714;2023-02-11T04:59:54;21.30;;;17.23;;
10120;SDS011;5100;45.176;5.714;2023-02-11T05:02:21;19.60;;;17.47;;
10120;SDS011;5100;45.176;5.714;2023-02-11T05:04:46;18.80;;;16.80;;
10120;SDS011;5100;45.176;5.714;2023-02-11T05:07:13;21.37;;;17.57;;
10120;SDS011;5100;45.176;5.714;2023-02-11T05:09:39;21.00;;;16.07;;
10120;SDS011;5100;45.176;5.714;2023-02-11T05:12:05;20.57;;;16.40;;
10120;SDS011;5100;45.176;5.714;2023-02-11T05:14:31;19.93;;;15.97;;
10120;SDS011;5100;45.176;5.714;2023-02-11T05:16:58;16.40;;;14.60;;
10120;SDS011;5100;45.176;5.714;2023-02-11T05:19:23;14.20;;;12.00;;
10120;SDS011;5100;45.176;5.714;2023-02-11T05:21:49;12.70;;;11.27;;
10120;SDS011;5100;45.176;5.714;2023-02-11T05:24:16;14.37;;;11.30;;
10120;SDS011;5100;45.176;5.714;2023-02-11T05:26:42;14.67;;;11.17;;
10120;SDS011;5100;45.176;5.714;2023-02-11T05:29:08;12.93;;;11.07;;
10120;SDS011;5100;45.176;5.714;2023-02-11T05:31:34;13.30;;;11.90;;
10120;SDS011;5100;45.176;5.714;2023-02-11T05:34:00;18.60;;;11.30;;
10120;SDS011;5100;45.176;5.714;2023-02-11T05:36:28;15.67;;;13.37;;
10120;SDS011;5100;45.176;5.714;2023-02-11T05:38:54;19.60;;;17.23;;
10120;SDS011;5100;45.176;5.714;2023-02-11T05:41:20;21.87;;;17.20;;
10120;SDS011;5100;45.176;5.714;2023-02-11T05:43:47;23.13;;;18.50;;
10120;SDS011;5100;45.176;5.714;2023-02-11T05:46:15;22.87;;;19.13;;
10120;SDS011;5100;45.176;5.714;2023-02-11T05:48:42;21.17;;;18.93;;
10120;SDS011;5100;45.176;5.714;2023-02-11T05:51:08;21.93;;;19.63;;
10120;SDS011;5100;45.176;5.714;2023-02-11T05:53:35;24.93;;;20.07;;
10120;SDS011;5100;45.176;5.714;2023-02-11T05:56:01;22.90;;;20.30;;
10120;SDS011;5100;45.176;5.714;2023-02-11T05:58:27;22.67;;;19.23;;
10120;SDS011;5100;45.176;5.714;2023-02-11T06:00:54;22.07;;;19.53;;
10120;SDS011;5100;45.176;5.714;2023-02-11T06:03:20;22.60;;;20.20;;
10120;SDS011;5100;45.176;5.714;2023-02-11T06:05:46;26.17;;;20.07;;
10120;SDS011;5100;45.176;5.714;2023-02-11T06:08:12;22.80;;;19.83;;
10120;SDS011;5100;45.176;5.714;2023-02-11T06:10:39;22.57;;;19.90;;
10120;SDS011;5100;45.176;5.714;2023-02-11T06:13:07;22.77;;;20.23;;
10120;SDS011;5100;45.176;5.714;2023-02-11T06:15:33;23.47;;;19.20;;
10120;SDS011;5100;45.176;5.714;2023-02-11T06:17:59;22.13;;;17.77;;
10120;SDS011;5100;45.176;5.714;2023-02-11T06:20:25;23.03;;;19.83;;
10120;SDS011;5100;45.176;5.714;2023-02-11T06:22:51;22.30;;;18.97;;
10120;SDS011;5100;45.176;5.714;2023-02-11T06:25:17;23.70;;;19.67;;
10120;SDS011;5100;45.176;5.714;2023-02-11T06:27:43;21.57;;;18.67;;
10120;SDS011;5100;45.176;5.714;2023-02-11T06:30:10;22.30;;;19.97;;
10120;SDS011;5100;45.176;5.714;2023-02-11T06:32:37;23.43;;;19.00;;
10120;SDS011;5100;45.176;5.714;2023-02-11T06:35:03;22.80;;;19.13;;
10120;SDS011;5100;45.176;5.714;2023-02-11T06:37:29;20.73;;;18.53;;
10120;SDS011;5100;45.176;5.714;2023-02-11T06:39:55;22.77;;;18.43;;
10120;SDS011;5100;45.176;5.714;2023-02-11T06:42:21;22.57;;;19.07;;
10120;SDS011;5100;45.176;5.714;2023-02-11T06:44:47;22.97;;;18.63;;
10120;SDS011;5100;45.176;5.714;2023-02-11T06:47:13;19.33;;;17.03;;
10120;SDS011;5100;45.176;5.714;2023-02-11T06:49:39;18.67;;;16.37;;
10120;SDS011;5100;45.176;5.714;2023-02-11T06:52:05;17.73;;;15.47;;
10120;SDS011;5100;45.176;5.714;2023-02-11T06:54:32;18.57;;;16.63;;
10120;SDS011;5100;45.176;5.714;2023-02-11T06:56:58;18.50;;;16.60;;
10120;SDS011;5100;45.176;5.714;2023-02-11T06:59:24;20.03;;;16.57;;
10120;SDS011;5100;45.176;5.714;2023-02-11T07:01:50;19.43;;;17.33;;
10120;SDS011;5100;45.176;5.714;2023-02-11T07:04:16;18.80;;;16.83;;
10120;SDS011;5100;45.176;5.714;2023-02-11T07:06:42;21.13;;;16.97;;
10120;SDS011;5100;45.176;5.714;2023-02-11T07:09:08;20.93;;;17.03;;
10120;SDS011;5100;45.176;5.714;2023-02-11T07:11:34;19.70;;;17.60;;
10120;SDS011;5100;45.176;5.714;2023-02-11T07:14:04;23.17;;;17.40;;
10120;SDS011;5100;45.176;5.714;2023-02-11T07:16:34;18.80;;;16.73;;
10120;SDS011;5100;45.176;5.714;2023-02-11T07:19:00;20.93;;;17.97;;
10120;SDS011;5100;45.176;5.714;2023-02-11T07:21:26;18.92;;;16.92;;
10120;SDS011;5100;45.176;5.714;2023-02-11T07:23:52;19.90;;;17.07;;
10120;SDS011;5100;45.176;5.714;2023-02-11T07:26:19;26.20;;;18.03;;
10120;SDS011;5100;45.176;5.714;2023-02-11T07:28:56;19.10;;;16.57;;
10120;SDS011;5100;45.176;5.714;2023-02-11T07:31:23;21.60;;;17.83;;
10120;SDS011;5100;45.176;5.714;2023-02-11T07:33:53;19.70;;;15.43;;
10120;SDS011;5100;45.176;5.714;2023-02-11T07:36:21;17.87;;;13.57;;
10120;SDS011;5100;45.176;5.714;2023-02-11T07:38:47;14.33;;;12.77;;
10120;SDS011;5100;45.176;5.714;2023-02-11T07:41:15;16.50;;;13.00;;
10120;SDS011;5100;45.176;5.714;2023-02-11T07:43:43;15.87;;;14.17;;
10120;SDS011;5100;45.176;5.714;2023-02-11T07:46:11;16.93;;;15.17;;
10120;SDS011;5100;45.176;5.714;2023-02-11T07:48:39;18.57;;;16.27;;
10120;SDS011;5100;45.176;5.714;2023-02-11T07:53:40;20.57;;;17.67;;
10120;SDS011;5100;45.176;5.714;2023-02-11T07:56:07;24.70;;;19.83;;
10120;SDS011;5100;45.176;5.714;2023-02-11T07:58:34;26.33;;;20.10;;
10120;SDS011;5100;45.176;5.714;2023-02-11T08:01:04;26.23;;;18.27;;
10120;SDS011;5100;45.176;5.714;2023-02-11T08:03:32;20.97;;;16.73;;
10120;SDS011;5100;45.176;5.714;2023-02-11T08:06:05;16.60;;;13.90;;
10120;SDS011;5100;45.176;5.714;2023-02-11T08:08:33;13.57;;;10.13;;
10120;SDS011;5100;45.176;5.714;2023-02-11T08:11:09;11.23;;;9.80;;
10120;SDS011;5100;45.176;5.714;2023-02-11T08:13:37;11.40;;;10.03;;
10120;SDS011;5100;45.176;5.714;2023-02-11T08:16:04;13.27;;;10.13;;
10120;SDS011;5100;45.176;5.714;2023-02-11T08:18:30;13.40;;;10.23;;
10120;SDS011;5100;45.176;5.714;2023-02-11T08:21:04;15.80;;;10.63;;
10120;SDS011;5100;45.176;5.714;2023-02-11T08:23:31;13.87;;;10.83;;
10120;SDS011;5100;45.176;5.714;2023-02-11T08:26:02;13.60;;;11.27;;
10120;SDS011;5100;45.176;5.714;2023-02-11T08:28:28;12.03;;;10.03;;
10120;SDS011;5100;45.176;5.714;2023-02-11T08:30:54;15.47;;;11.93;;
10120;SDS011;5100;45.176;5.714;2023-02-11T08:33:21;15.33;;;13.83;;
10120;SDS011;5100;45.176;5.714;2023-02-11T08:35:47;19.93;;;16.67;;
10120;SDS011;5100;45.176;5.714;2023-02-11T08:38:13;23.87;;;16.97;;
10120;SDS011;5100;45.176;5.714;2023-02-11T08:40:39;21.03;;;18.30;;
10120;SDS011;5100;45.176;5.714;2023-02-11T08:43:05;19.20;;;17.30;;
10120;SDS011;5100;45.176;5.714;2023-02-11T08:45:31;19.10;;;17.10;;
10120;SDS011;5100;45.176;5.714;2023-02-11T08:47:57;20.27;;;17.50;;
10120;SDS011;5100;45.176;5.714;2023-02-11T08:50:23;19.20;;;16.87;;
10120;SDS011;5100;45.176;5.714;2023-02-11T08:52:51;19.37;;;17.37;;
10120;SDS011;5100;45.176;5.714;2023-02-11T08:55:17;18.93;;;16.93;;
10120;SDS011;5100;45.176;5.714;2023-02-11T08:57:43;21.60;;;18.07;;
10120;SDS011;5100;45.176;5.714;2023-02-11T09:00:10;19.33;;;17.27;;
10120;SDS011;5100;45.176;5.714;2023-02-11T09:02:36;22.23;;;17.13;;
10120;SDS011;5100;45.176;5.714;2023-02-11T09:05:02;21.43;;;17.77;;
10120;SDS011;5100;45.176;5.714;2023-02-11T09:07:28;19.27;;;16.50;;
10120;SDS011;5100;45.176;5.714;2023-02-11T09:09:55;19.37;;;17.27;;
10120;SDS011;5100;45.176;5.714;2023-02-11T09:12:20;19.57;;;17.47;;
10120;SDS011;5100;45.176;5.714;2023-02-11T09:14:46;21.90;;;18.60;;
10120;SDS011;5100;45.176;5.714;2023-02-11T09:17:13;20.67;;;17.80;;
10120;SDS011;5100;45.176;5.714;2023-02-11T09:19:38;20.63;;;17.27;;
10120;SDS011;5100;45.176;5.714;2023-02-11T09:22:04;20.23;;;17.17;;
10120;SDS011;5100;45.176;5.714;2023-02-11T09:24:31;26.77;;;23.87;;
10120;SDS011;5100;45.176;5.714;2023-02-11T09:26:57;23.50;;;20.30;;
10120;SDS011;5100;45.176;5.714;2023-02-11T09:29:23;22.77;;;17.70;;
10120;SDS011;5100;45.176;5.714;2023-02-11T09:31:49;20.73;;;18.43;;
10120;SDS011;5100;45.176;5.714;2023-02-11T09:34:15;21.40;;;17.93;;
10120;SDS011;5100;45.176;5.714;2023-02-11T09:36:41;20.13;;;18.03;;
10120;SDS011;5100;45.176;5.714;2023-02-11T09:39:10;19.73;;;17.80;;
10120;SDS011;5100;45.176;5.714;2023-02-11T09:41:53;22.53;;;19.13;;
10120;SDS011;5100;45.176;5.714;2023-02-11T09:44:36;23.07;;;19.30;;
10120;SDS011;5100;45.176;5.714;2023-02-11T09:47:05;24.00;;;18.23;;
10120;SDS011;5100;45.176;5.714;2023-02-11T09:49:46;20.70;;;18.50;;
10120;SDS011;5100;45.176;5.714;2023-02-11T09:55:01;18.67;;;16.77;;
10120;SDS011;5100;45.176;5.714;2023-02-11T09:57:33;19.77;;;16.30;;
10120;SDS011;5100;45.176;5.714;2023-02-11T10:00:06;18.43;;;16.53;;
10120;SDS011;5100;45.176;5.714;2023-02-11T10:03:01;19.10;;;16.63;;
10120;SDS011;5100;45.176;5.714;2023-02-11T10:11:21;22.33;;;17.87;;
10120;SDS011;5100;45.176;5.714;2023-02-11T10:17:24;20.57;;;18.33;;
10120;SDS011;5100;45.176;5.714;2023-02-11T10:22:47;18.40;;;16.50;;
10120;SDS011;5100;45.176;5.714;2023-02-11T10:25:22;18.77;;;16.70;;
10120;SDS011;5100;45.176;5.714;2023-02-11T10:27:54;16.93;;;15.30;;
10120;SDS011;5100;45.176;5.714;2023-02-11T10:30:31;16.73;;;15.03;;
10120;SDS011;5100;45.176;5.714;2023-02-11T10:35:51;18.33;;;15.47;;
10120;SDS011;5100;45.176;5.714;2023-02-11T10:38:17;15.53;;;13.93;;
10120;SDS011;5100;45.176;5.714;2023-02-11T10:40:43;19.47;;;14.10;;
10120;SDS011;5100;45.176;5.714;2023-02-11T10:43:10;17.43;;;15.63;;
10120;SDS011;5100;45.176;5.714;2023-02-11T10:53:41;16.07;;;14.37;;
10120;SDS011;5100;45.176;5.714;2023-02-11T10:56:10;16.23;;;13.97;;
10120;SDS011;5100;45.176;5.714;2023-02-11T10:58:59;16.70;;;13.83;;
10120;SDS011;5100;45.176;5.714;2023-02-11T11:01:42;20.97;;;14.73;;
10120;SDS011;5100;45.176;5.714;2023-02-11T11:04:34;19.07;;;14.33;;
10120;SDS011;5100;45.176;5.714;2023-02-11T11:07:09;15.77;;;12.93;;
10120;SDS011;5100;45.176;5.714;2023-02-11T11:10:25;16.83;;;15.13;;
10120;SDS011;5100;45.176;5.714;2023-02-11T11:12:49;15.13;;;13.53;;
10120;SDS011;5100;45.176;5.714;2023-02-11T11:15:17;14.47;;;12.97;;
10120;SDS011;5100;45.176;5.714;2023-02-11T11:17:46;17.97;;;12.87;;
10120;SDS011;5100;45.176;5.714;2023-02-11T11:20:27;13.27;;;11.87;;
10120;SDS011;5100;45.176;5.714;2023-02-11T11:23:17;12.77;;;11.47;;
10120;SDS011;5100;45.176;5.714;2023-02-11T11:26:06;14.50;;;11.67;;
10120;SDS011;5100;45.176;5.714;2023-02-11T11:31:12;13.37;;;12.07;;
10120;SDS011;5100;45.176;5.714;2023-02-11T11:33:43;15.37;;;12.20;;
10120;SDS011;5100;45.176;5.714;2023-02-11T11:36:12;16.83;;;13.37;;
10120;SDS011;5100;45.176;5.714;2023-02-11T11:38:47;15.47;;;13.47;;
10120;SDS011;5100;45.176;5.714;2023-02-11T11:46:44;16.73;;;14.07;;
10120;SDS011;5100;45.176;5.714;2023-02-11T11:49:21;15.90;;;14.30;;
10120;SDS011;5100;45.176;5.714;2023-02-11T11:55:10;19.03;;;15.37;;
10120;SDS011;5100;45.176;5.714;2023-02-11T11:57:46;16.80;;;14.67;;
10120;SDS011;5100;45.176;5.714;2023-02-11T12:00:18;19.30;;;14.87;;
10120;SDS011;5100;45.176;5.714;2023-02-11T12:05:40;17.13;;;15.23;;
10120;SDS011;5100;45.176;5.714;2023-02-11T12:08:22;20.27;;;15.20;;
10120;SDS011;5100;45.176;5.714;2023-02-11T12:13:34;16.70;;;14.73;;
10120;SDS011;5100;45.176;5.714;2023-02-11T12:21:54;14.47;;;12.90;;
10120;SDS011;5100;45.176;5.714;2023-02-11T12:41:21;12.80;;;10.83;;
10120;SDS011;5100;45.176;5.714;2023-02-11T12:44:11;13.53;;;10.53;;
10120;SDS011;5100;45.176;5.714;2023-02-11T12:47:15;14.37;;;10.80;;
10120;SDS011;5100;45.176;5.714;2023-02-11T12:55:13;10.87;;;9.53;;
10120;SDS011;5100;45.176;5.714;2023-02-11T12:57:41;11.10;;;9.90;;
10120;SDS011;5100;45.176;5.714;2023-02-11T13:00:21;13.20;;;10.43;;
10120;SDS011;5100;45.176;5.714;2023-02-11T13:05:36;13.30;;;10.47;;
10120;SDS011;5100;45.176;5.714;2023-02-11T13:08:13;10.67;;;9.57;;
10120;SDS011;5100;45.176;5.714;2023-02-11T13:10:48;15.47;;;10.77;;
10120;SDS011;5100;45.176;5.714;2023-02-11T13:13:21;11.73;;;10.53;;
10120;SDS011;5100;45.176;5.714;2023-02-11T13:15:57;12.17;;;10.00;;
10120;SDS011;5100;45.176;5.714;2023-02-11T13:18:37;14.30;;;10.87;;
10120;SDS011;5100;45.176;5.714;2023-02-11T13:21:24;12.93;;;10.53;;
10120;SDS011;5100;45.176;5.714;2023-02-11T13:23:58;14.07;;;11.40;;
10120;SDS011;5100;45.176;5.714;2023-02-11T13:35:26;13.27;;;11.87;;
10120;SDS011;5100;45.176;5.714;2023-02-11T13:37:57;13.90;;;11.43;;
10120;SDS011;5100;45.176;5.714;2023-02-11T13:43:05;17.53;;;11.97;;
10120;SDS011;5100;45.176;5.714;2023-02-11T13:45:44;13.93;;;12.43;;
10120;SDS011;5100;45.176;5.714;2023-02-11T13:48:24;12.63;;;11.20;;
10120;SDS011;5100;45.176;5.714;2023-02-11T13:50:56;14.00;;;11.53;;
10120;SDS011;5100;45.176;5.714;2023-02-11T13:53:29;14.37;;;11.50;;
10120;SDS011;5100;45.176;5.714;2023-02-11T13:59:02;15.27;;;12.30;;
10120;SDS011;5100;45.176;5.714;2023-02-11T14:05:23;13.90;;;12.43;;
10120;SDS011;5100;45.176;5.714;2023-02-11T14:10:55;15.23;;;12.77;;
10120;SDS011;5100;45.176;5.714;2023-02-11T14:13:24;15.60;;;12.60;;
10120;SDS011;5100;45.176;5.714;2023-02-11T14:21:19;15.93;;;13.13;;
10120;SDS011;5100;45.176;5.714;2023-02-11T14:23:52;15.10;;;12.97;;
10120;SDS011;5100;45.176;5.714;2023-02-11T14:29:44;14.87;;;13.37;;
10120;SDS011;5100;45.176;5.714;2023-02-11T14:35:27;16.53;;;13.53;;
10120;SDS011;5100;45.176;5.714;2023-02-11T14:38:03;15.73;;;13.90;;
10120;SDS011;5100;45.176;5.714;2023-02-11T14:40:45;17.83;;;13.50;;
10120;SDS011;5100;45.176;5.714;2023-02-11T14:43:15;15.53;;;13.13;;
10120;SDS011;5100;45.176;5.714;2023-02-11T14:45:47;18.90;;;13.70;;
10120;SDS011;5100;45.176;5.714;2023-02-11T14:48:17;15.53;;;13.73;;
10120;SDS011;5100;45.176;5.714;2023-02-11T14:50:45;15.70;;;14.03;;
10120;SDS011;5100;45.176;5.714;2023-02-11T14:53:15;15.90;;;13.40;;
10120;SDS011;5100;45.176;5.714;2023-02-11T14:55:47;19.37;;;12.77;;
10120;SDS011;5100;45.176;5.714;2023-02-11T15:03:47;17.33;;;13.83;;
10120;SDS011;5100;45.176;5.714;2023-02-11T15:08:54;16.00;;;13.97;;
10120;SDS011;5100;45.176;5.714;2023-02-11T15:11:25;16.77;;;13.93;;
10120;SDS011;5100;45.176;5.714;2023-02-11T15:13:54;17.33;;;13.73;;
10120;SDS011;5100;45.176;5.714;2023-02-11T15:16:24;14.33;;;12.80;;
10120;SDS011;5100;45.176;5.714;2023-02-11T15:18:57;15.13;;;13.10;;
10120;SDS011;5100;45.176;5.714;2023-02-11T15:21:30;19.80;;;14.20;;
10120;SDS011;5100;45.176;5.714;2023-02-11T15:24:02;17.53;;;14.20;;
10120;SDS011;5100;45.176;5.714;2023-02-11T15:26:31;14.37;;;12.83;;
10120;SDS011;5100;45.176;5.714;2023-02-11T15:28:57;15.27;;;13.70;;
10120;SDS011;5100;45.176;5.714;2023-02-11T15:31:25;15.03;;;13.50;;
10120;SDS011;5100;45.176;5.714;2023-02-11T15:33:52;15.87;;;13.70;;
10120;SDS011;5100;45.176;5.714;2023-02-11T15:36:20;16.60;;;14.33;;
10120;SDS011;5100;45.176;5.714;2023-02-11T15:39:36;15.03;;;12.70;;
10120;SDS011;5100;45.176;5.714;2023-02-11T15:41:43;14.93;;;13.30;;
10120;SDS011;5100;45.176;5.714;2023-02-11T15:44:29;16.43;;;13.50;;
10120;SDS011;5100;45.176;5.714;2023-02-11T15:46:56;17.47;;;12.63;;
10120;SDS011;5100;45.176;5.714;2023-02-11T15:49:23;16.20;;;13.67;;
10120;SDS011;5100;45.176;5.714;2023-02-11T15:51:51;17.03;;;13.37;;
10120;SDS011;5100;45.176;5.714;2023-02-11T15:54:20;15.10;;;12.60;;
10120;SDS011;5100;45.176;5.714;2023-02-11T15:56:51;16.13;;;12.70;;
10120;SDS011;5100;45.176;5.714;2023-02-11T16:01:55;14.23;;;12.73;;
10120;SDS011;5100;45.176;5.714;2023-02-11T16:04:29;14.10;;;12.60;;
10120;SDS011;5100;45.176;5.714;2023-02-11T16:06:56;18.17;;;13.20;;
10120;SDS011;5100;45.176;5.714;2023-02-11T16:09:23;18.70;;;14.40;;
10120;SDS011;5100;45.176;5.714;2023-02-11T16:11:58;19.13;;;14.57;;
10120;SDS011;5100;45.176;5.714;2023-02-11T16:14:45;19.30;;;14.87;;
10120;SDS011;5100;45.176;5.714;2023-02-11T16:17:12;16.87;;;14.90;;
10120;SDS011;5100;45.176;5.714;2023-02-11T16:19:50;14.60;;;12.60;;
10120;SDS011;5100;45.176;5.714;2023-02-11T16:22:23;15.37;;;13.77;;
10120;SDS011;5100;45.176;5.714;2023-02-11T16:24:56;17.67;;;13.60;;
10120;SDS011;5100;45.176;5.714;2023-02-11T16:30:26;14.97;;;13.37;;
10120;SDS011;5100;45.176;5.714;2023-02-11T16:32:59;14.93;;;12.53;;
10120;SDS011;5100;45.176;5.714;2023-02-11T16:35:25;14.67;;;12.77;;
10120;SDS011;5100;45.176;5.714;2023-02-11T16:37:51;18.00;;;13.70;;
10120;SDS011;5100;45.176;5.714;2023-02-11T16:40:19;17.03;;;12.43;;
10120;SDS011;5100;45.176;5.714;2023-02-11T16:42:45;16.83;;;13.17;;
10120;SDS011;5100;45.176;5.714;2023-02-11T16:45:11;12.20;;;10.67;;
10120;SDS011;5100;45.176;5.714;2023-02-11T16:47:37;12.23;;;10.43;;
10120;SDS011;5100;45.176;5.714;2023-02-11T16:50:07;11.47;;;10.23;;
10120;SDS011;5100;45.176;5.714;2023-02-11T16:52:35;12.40;;;9.40;;
10120;SDS011;5100;45.176;5.714;2023-02-11T16:55:03;14.80;;;10.53;;
10120;SDS011;5100;45.176;5.714;2023-02-11T16:57:30;11.90;;;10.57;;
10120;SDS011;5100;45.176;5.714;2023-02-11T16:59:56;13.37;;;10.20;;
10120;SDS011;5100;45.176;5.714;2023-02-11T17:02:27;12.90;;;9.63;;
10120;SDS011;5100;45.176;5.714;2023-02-11T17:04:57;13.13;;;10.30;;
10120;SDS011;5100;45.176;5.714;2023-02-11T17:07:25;16.43;;;10.97;;
10120;SDS011;5100;45.176;5.714;2023-02-11T17:09:52;13.70;;;10.47;;
10120;SDS011;5100;45.176;5.714;2023-02-11T17:12:18;11.97;;;10.13;;
10120;SDS011;5100;45.176;5.714;2023-02-11T17:14:45;17.67;;;11.23;;
10120;SDS011;5100;45.176;5.714;2023-02-11T17:17:11;15.23;;;10.73;;
10120;SDS011;5100;45.176;5.714;2023-02-11T17:19:38;20.57;;;12.17;;
10120;SDS011;5100;45.176;5.714;2023-02-11T17:22:04;12.13;;;10.83;;
10120;SDS011;5100;45.176;5.714;2023-02-11T17:24:31;14.23;;;11.20;;
10120;SDS011;5100;45.176;5.714;2023-02-11T17:26:57;17.07;;;11.87;;
10120;SDS011;5100;45.176;5.714;2023-02-11T17:29:23;18.30;;;12.53;;
10120;SDS011;5100;45.176;5.714;2023-02-11T17:31:50;17.37;;;13.10;;
10120;SDS011;5100;45.176;5.714;2023-02-11T17:34:17;19.50;;;12.47;;